Actual water levels and discharges of Morava river

Lanžhot

Date and time (UTC) H (cm) Q (m³/s)
5. 3. 2024 15:00 170 96.7
5. 3. 2024 14:00 170 97
5. 3. 2024 13:00 170 97
5. 3. 2024 12:00 168 95
5. 3. 2024 11:00 164 93
5. 3. 2024 10:00 163 92
5. 3. 2024 09:00 168 95
5. 3. 2024 08:00 170 97
5. 3. 2024 07:00 170 97
5. 3. 2024 06:00 170 97
5. 3. 2024 05:00 170 97
5. 3. 2024 04:00 171 97
5. 3. 2024 03:00 171 97

H - water level, Q - discharge

Strážnice

Date and time (UTC) H (cm) Q (m³/s)
5. 3. 2024 15:00 260 97.1
5. 3. 2024 14:00 261 98
5. 3. 2024 13:00 261 98
5. 3. 2024 12:00 262 98
5. 3. 2024 11:00 262 98
5. 3. 2024 10:00 263 99
5. 3. 2024 09:00 263 99
5. 3. 2024 08:00 263 99
5. 3. 2024 07:00 264 99
5. 3. 2024 06:00 264 99
5. 3. 2024 05:00 265 100
5. 3. 2024 04:00 265 100
5. 3. 2024 03:00 265 100

H - water level, Q - discharge
more information

Spytihněv

Date and time (UTC) H (cm) Q (m³/s)
5. 3. 2024 15:00 203 87.2
5. 3. 2024 14:00 202 86
5. 3. 2024 13:00 203 87
5. 3. 2024 12:00 204 88
5. 3. 2024 11:00 203 87
5. 3. 2024 10:00 203 87
5. 3. 2024 09:00 204 88
5. 3. 2024 08:00 205 89
5. 3. 2024 07:00 204 88
5. 3. 2024 06:00 205 89
5. 3. 2024 05:00 206 90
5. 3. 2024 04:00 205 89
5. 3. 2024 03:00 206 90

H - water level, Q - discharge

Kroměříž

Date and time (UTC) H (cm) Q (m³/s)
5. 3. 2024 15:00 215 80.3
5. 3. 2024 14:00 215 80
5. 3. 2024 13:00 216 81
5. 3. 2024 12:00 216 81
5. 3. 2024 11:00 216 81
5. 3. 2024 10:00 217 82
5. 3. 2024 09:00 217 82
5. 3. 2024 08:00 218 83
5. 3. 2024 07:00 218 83
5. 3. 2024 06:00 218 83
5. 3. 2024 05:00 219 84
5. 3. 2024 04:00 219 84
5. 3. 2024 03:00 219 84

H - water level, Q - discharge
more information

Olomouc-Nové Sady tok

Date and time (UTC) H (cm) Q (m³/s)
5. 3. 2024 15:00 219 64.4
5. 3. 2024 14:00 220 65
5. 3. 2024 13:00 220 65
5. 3. 2024 12:00 219 64
5. 3. 2024 11:00 219 64
5. 3. 2024 10:00 219 64
5. 3. 2024 09:00 219 64
5. 3. 2024 08:00 219 64
5. 3. 2024 07:00 220 65
5. 3. 2024 06:00 220 65
5. 3. 2024 05:00 221 65
5. 3. 2024 04:00 222 66
5. 3. 2024 03:00 223 66

H - water level, Q - discharge

Moravičany

Date and time (UTC) H (cm) Q (m³/s)
5. 3. 2024 15:00 119 25.6
5. 3. 2024 14:00 118 25
5. 3. 2024 13:00 120 26
5. 3. 2024 12:00 120 26
5. 3. 2024 11:00 122 27
5. 3. 2024 10:00 124 28
5. 3. 2024 09:00 123 27
5. 3. 2024 08:00 119 26
5. 3. 2024 07:00 121 27
5. 3. 2024 06:00 120 26
5. 3. 2024 05:00 123 27
5. 3. 2024 04:00 122 27
5. 3. 2024 03:00 122 27

H - water level, Q - discharge
Source data
Labe Basin Vltava Basin Povodí Moravy ČHMÚ
Po vodě ekologicky, levně a v pohodě
backgroung on backgroung off